Time;durP1;ratioP1;P1;durP2;ratioP2;P2;SDS_P1;SDS_P2;PMS_P1;PMS_P2;Temp;Humidity;BMP_temperature;BMP_pressure;BME280_temperature;BME280_humidity;BME280_pressure;Samples;Min_cycle;Max_cycle;Signal;HPM_P1;HPM_P2
2022/08/10 00:02:27;;;;;;;0.22;0.22;;;16.20;99.90;;;;;;5069543;28;20044;-82
2022/08/10 00:04:54;;;;;;;0.52;0.13;;;16.20;99.90;;;;;;5073354;28;20072;-79
2022/08/10 00:07:21;;;;;;;0.10;0.10;;;16.20;99.90;;;;;;5073607;28;20048;-78
2022/08/10 00:09:47;;;;;;;0.10;0.10;;;16.10;99.90;;;;;;5073042;28;20138;-79
2022/08/10 00:12:14;;;;;;;0.75;0.32;;;16.10;99.90;;;;;;5073287;28;20085;-79
2022/08/10 00:14:41;;;;;;;0.13;0.13;;;16.10;99.90;;;;;;5072804;28;20083;-82
2022/08/10 00:17:07;;;;;;;0.10;0.10;;;16.00;99.90;;;;;;5073006;28;20048;-79
2022/08/10 00:19:34;;;;;;;0.60;0.40;;;16.00;99.90;;;;;;5073090;28;20071;-82
2022/08/10 00:22:01;;;;;;;0.20;0.10;;;16.00;99.90;;;;;;5073363;28;20550;-82
2022/08/10 00:24:27;;;;;;;0.20;0.13;;;16.00;99.90;;;;;;5069916;28;20029;-79
2022/08/10 00:26:54;;;;;;;0.15;0.15;;;15.90;99.90;;;;;;5052902;28;20441;-82
2022/08/10 00:29:21;;;;;;;0.10;0.10;;;15.90;99.90;;;;;;5052992;28;20084;-79
2022/08/10 00:31:47;;;;;;;0.30;0.30;;;15.90;99.90;;;;;;5053047;28;20037;-79
2022/08/10 00:34:14;;;;;;;0.20;0.20;;;15.80;99.90;;;;;;5053179;28;20090;-79
2022/08/10 00:36:41;;;;;;;0.20;0.20;;;15.80;99.90;;;;;;5068851;28;20490;-82
2022/08/10 00:39:08;;;;;;;0.10;0.10;;;15.80;99.90;;;;;;5052834;28;20041;-79
2022/08/10 00:41:34;;;;;;;0.45;0.20;;;15.80;99.90;;;;;;5068917;28;20037;-82
2022/08/10 00:44:01;;;;;;;0.20;0.17;;;15.70;99.90;;;;;;5052700;28;20033;-79
2022/08/10 00:46:28;;;;;;;0.47;0.30;;;15.80;99.90;;;;;;5061814;28;20171;-81
2022/08/10 00:48:54;;;;;;;0.17;0.13;;;15.70;99.90;;;;;;5072788;28;20045;-79
2022/08/10 00:51:21;;;;;;;0.55;0.40;;;15.70;99.90;;;;;;5106046;28;20051;-79
2022/08/10 00:53:48;;;;;;;0.10;0.10;;;15.70;99.90;;;;;;5089124;28;20037;-82
2022/08/10 00:56:15;;;;;;;0.10;0.10;;;15.70;99.90;;;;;;5087663;28;20054;-82
2022/08/10 00:58:42;;;;;;;0.15;0.15;;;15.60;99.90;;;;;;5055844;28;20047;-79
2022/08/10 01:01:09;;;;;;;0.20;0.20;;;15.60;99.90;;;;;;5072465;28;20037;-79
2022/08/10 01:03:36;;;;;;;0.13;0.13;;;15.60;99.90;;;;;;5055911;28;20045;-79
2022/08/10 01:06:29;;;;;;;0.10;0.10;;;15.60;99.90;;;;;;5039835;28;20040;-79
2022/08/10 01:09:01;;;;;;;0.77;0.45;;;15.60;99.90;;;;;;5072629;28;20044;-79
2022/08/10 01:11:38;;;;;;;0.20;0.20;;;15.60;99.90;;;;;;5053264;28;20041;-82
2022/08/10 01:14:14;;;;;;;0.15;0.15;;;15.60;99.90;;;;;;5055100;28;20076;-82
2022/08/10 01:16:59;;;;;;;0.30;0.20;;;15.60;99.90;;;;;;5091853;28;20040;-82
2022/08/10 01:20:16;;;;;;;0.47;0.45;;;15.50;99.90;;;;;;5079063;28;20040;-82
2022/08/10 01:23:04;;;;;;;0.03;0.03;;;15.50;99.90;;;;;;5012340;28;20096;-82
2022/08/10 01:25:46;;;;;;;0.28;0.20;;;15.50;99.90;;;;;;4996578;28;20046;-83
2022/08/10 01:28:35;;;;;;;0.40;0.35;;;15.50;99.90;;;;;;5051669;28;20049;-79
2022/08/10 01:31:03;;;;;;;0.10;0.10;;;15.50;99.90;;;;;;5073084;28;20127;-82
2022/08/10 01:33:35;;;;;;;0.73;0.40;;;15.40;99.90;;;;;;5072840;28;20040;-82
2022/08/10 01:36:17;;;;;;;0.10;0.10;;;15.40;99.90;;;;;;5072519;28;20041;-79
2022/08/10 01:38:48;;;;;;;0.32;0.25;;;15.50;99.90;;;;;;5089054;28;20091;-82
2022/08/10 01:41:25;;;;;;;0.30;0.20;;;15.40;99.90;;;;;;5072438;28;20508;-82
2022/08/10 01:44:08;;;;;;;0.17;0.17;;;15.40;99.90;;;;;;5072107;28;20041;-82
2022/08/10 01:46:38;;;;;;;0.75;0.60;;;15.40;99.90;;;;;;5089085;28;20136;-79
2022/08/10 01:49:10;;;;;;;0.30;0.30;;;15.40;99.90;;;;;;5089118;28;20045;-82
2022/08/10 01:51:47;;;;;;;0.40;0.20;;;15.50;99.90;;;;;;5072836;28;20425;-82
2022/08/10 01:54:18;;;;;;;0.45;0.30;;;15.50;99.90;;;;;;5072397;28;20481;-82
2022/08/10 01:56:48;;;;;;;0.30;0.30;;;15.70;99.90;;;;;;5071788;28;20100;-82
2022/08/10 01:59:20;;;;;;;0.35;0.30;;;15.50;99.90;;;;;;5079153;28;20493;-79
2022/08/10 02:01:57;;;;;;;0.32;0.22;;;15.50;99.90;;;;;;5095393;28;20048;-82
2022/08/10 02:04:25;;;;;;;0.17;0.17;;;15.60;99.90;;;;;;5095801;28;20119;-79
2022/08/10 02:06:54;;;;;;;0.17;0.17;;;15.50;99.90;;;;;;5078687;28;20048;-79
2022/08/10 02:09:26;;;;;;;0.52;0.38;;;15.50;99.90;;;;;;5093397;28;20040;-82
2022/08/10 02:11:58;;;;;;;0.30;0.17;;;15.60;99.90;;;;;;5075426;28;20401;-82
2022/08/10 02:14:35;;;;;;;0.30;0.20;;;15.60;99.90;;;;;;5075493;28;20032;-79
2022/08/10 02:17:06;;;;;;;0.20;0.20;;;15.60;99.90;;;;;;5075093;28;20147;-79
2022/08/10 02:19:38;;;;;;;0.40;0.20;;;15.60;99.90;;;;;;5076461;28;20051;-82
2022/08/10 02:22:07;;;;;;;0.10;0.10;;;15.60;99.90;;;;;;5095055;28;20032;-79
2022/08/10 02:24:36;;;;;;;0.20;0.17;;;15.60;99.90;;;;;;5095386;28;20481;-82
2022/08/10 02:27:04;;;;;;;0.10;0.10;;;15.60;99.90;;;;;;5094918;28;20040;-80
2022/08/10 02:33:29;;;;;;;0.20;0.20;;;15.60;99.90;;;;;;5127307;28;20062;-82
2022/08/10 02:35:59;;;;;;;0.30;0.28;;;15.60;99.90;;;;;;5078801;28;20044;-79
2022/08/10 02:38:36;;;;;;;0.32;0.32;;;15.60;99.90;;;;;;5111851;28;20124;-82
2022/08/10 02:41:42;;;;;;;0.55;0.40;;;15.60;99.90;;;;;;5095183;28;20036;-82
2022/08/10 02:44:18;;;;;;;0.17;0.17;;;15.60;99.90;;;;;;5108895;28;20496;-82
2022/08/10 02:46:50;;;;;;;0.50;0.28;;;15.60;99.90;;;;;;5111690;28;20044;-82
2022/08/10 02:49:24;;;;;;;0.77;0.52;;;15.60;99.90;;;;;;5111544;28;20036;-82
2022/08/10 02:52:06;;;;;;;0.60;0.30;;;15.60;99.90;;;;;;5111572;28;20420;-82
2022/08/10 02:54:39;;;;;;;0.68;0.20;;;15.60;99.90;;;;;;5084090;28;20037;-79
2022/08/10 02:57:17;;;;;;;0.50;0.28;;;15.60;99.90;;;;;;5054450;28;20080;-83
2022/08/10 02:59:49;;;;;;;1.60;0.88;;;15.60;99.90;;;;;;5054877;28;20505;-82
2022/08/10 03:02:37;;;;;;;0.40;0.40;;;15.60;99.90;;;;;;5054323;28;20512;-82
2022/08/10 03:05:09;;;;;;;0.63;0.40;;;15.60;99.90;;;;;;5054897;28;20041;-82
2022/08/10 03:07:59;;;;;;;0.20;0.20;;;15.60;99.90;;;;;;5071046;28;20089;-79
2022/08/10 03:10:29;;;;;;;0.20;0.20;;;15.50;99.90;;;;;;5070577;28;20052;-79
2022/08/10 03:13:00;;;;;;;0.57;0.40;;;15.50;99.90;;;;;;5070897;28;20047;-82
2022/08/10 03:15:28;;;;;;;0.60;0.32;;;15.50;99.90;;;;;;5068833;28;20032;-82
2022/08/10 03:17:57;;;;;;;0.30;0.30;;;15.50;99.90;;;;;;5077940;28;20106;-83
2022/08/10 03:20:29;;;;;;;0.77;0.40;;;15.50;99.90;;;;;;5094169;28;20044;-82
2022/08/10 03:22:57;;;;;;;0.45;0.32;;;15.50;99.90;;;;;;5094444;28;20093;-82
2022/08/10 03:25:25;;;;;;;0.47;0.40;;;15.50;99.90;;;;;;5061303;28;20078;-82
2022/08/10 03:27:52;;;;;;;0.28;0.20;;;15.50;99.90;;;;;;5061546;28;20097;-83
2022/08/10 03:30:19;;;;;;;0.60;0.45;;;15.50;99.90;;;;;;5093933;28;20458;-80
2022/08/10 03:32:48;;;;;;;0.30;0.30;;;15.50;99.90;;;;;;5077641;28;20075;-79
2022/08/10 03:35:16;;;;;;;0.22;0.20;;;15.40;99.90;;;;;;5077078;28;20046;-82
2022/08/10 03:37:43;;;;;;;0.47;0.30;;;15.40;99.90;;;;;;5044164;28;20093;-79
2022/08/10 03:40:10;;;;;;;0.95;0.60;;;15.40;99.90;;;;;;5040877;28;20032;-80
2022/08/10 03:42:39;;;;;;;0.50;0.40;;;15.40;99.90;;;;;;5071812;28;20061;-83
2022/08/10 03:45:07;;;;;;;2.10;0.47;;;15.40;99.90;;;;;;5072945;28;20109;-82
2022/08/10 03:47:38;;;;;;;1.45;0.60;;;15.40;99.90;;;;;;5056940;28;20101;-79
2022/08/10 03:50:05;;;;;;;0.30;0.25;;;15.30;99.90;;;;;;5072405;28;20036;-79
2022/08/10 03:52:32;;;;;;;0.43;0.30;;;15.40;99.90;;;;;;5056508;28;20147;-79
2022/08/10 03:55:00;;;;;;;0.22;0.22;;;15.40;99.90;;;;;;5056402;28;20094;-79
2022/08/10 03:57:28;;;;;;;0.32;0.28;;;15.40;99.90;;;;;;5061458;28;20036;-79
2022/08/10 03:59:56;;;;;;;0.55;0.30;;;15.30;99.90;;;;;;5073919;28;20037;-82
2022/08/10 04:02:24;;;;;;;0.60;0.40;;;15.30;99.90;;;;;;5070387;28;20037;-81
2022/08/10 04:04:51;;;;;;;0.13;0.13;;;15.30;99.90;;;;;;5073650;28;20044;-80
2022/08/10 04:07:17;;;;;;;0.30;0.20;;;15.30;99.90;;;;;;5040780;28;20040;-82
2022/08/10 04:09:44;;;;;;;0.28;0.20;;;15.30;99.90;;;;;;5073283;28;20040;-82
2022/08/10 04:12:11;;;;;;;0.25;0.20;;;15.30;99.90;;;;;;5040842;28;20161;-82
2022/08/10 04:14:38;;;;;;;0.85;0.45;;;15.30;99.90;;;;;;5089695;28;20421;-82
2022/08/10 04:17:05;;;;;;;0.77;0.47;;;15.30;99.90;;;;;;5072993;28;20044;-80
2022/08/10 04:19:41;;;;;;;0.28;0.28;;;15.20;99.90;;;;;;5055659;28;20031;-79
2022/08/10 04:22:19;;;;;;;0.22;0.22;;;15.20;99.90;;;;;;5109776;28;20044;-80
2022/08/10 04:24:50;;;;;;;0.47;0.32;;;15.20;99.90;;;;;;5092996;28;20504;-79
2022/08/10 04:27:17;;;;;;;0.30;0.30;;;15.20;99.90;;;;;;5093270;28;20042;-80
2022/08/10 04:29:44;;;;;;;0.60;0.40;;;15.20;99.90;;;;;;5059862;28;20039;-79
2022/08/10 04:32:13;;;;;;;0.20;0.20;;;15.20;99.90;;;;;;5059951;28;20047;-79
2022/08/10 04:34:43;;;;;;;0.40;0.30;;;15.20;99.90;;;;;;5076611;28;20066;-79
2022/08/10 04:37:12;;;;;;;0.10;0.10;;;15.20;99.90;;;;;;5092743;28;20127;-79
2022/08/10 04:39:39;;;;;;;0.22;0.22;;;15.20;99.90;;;;;;5070978;28;20032;-83
2022/08/10 04:42:06;;;;;;;0.60;0.40;;;15.10;99.90;;;;;;5056746;28;20559;-82
2022/08/10 04:44:33;;;;;;;0.50;0.28;;;15.20;99.90;;;;;;5056406;28;20040;-80
2022/08/10 04:47:00;;;;;;;0.22;0.22;;;15.10;99.90;;;;;;5073220;28;20480;-82
2022/08/10 04:49:26;;;;;;;0.32;0.17;;;15.10;99.90;;;;;;5044454;28;20043;-81
2022/08/10 04:51:53;;;;;;;0.30;0.25;;;15.20;99.90;;;;;;5097362;28;20044;-82
2022/08/10 04:54:20;;;;;;;0.30;0.30;;;15.20;99.90;;;;;;5080439;28;20548;-80
2022/08/10 04:56:47;;;;;;;0.40;0.32;;;15.20;99.90;;;;;;5096790;28;20048;-82
2022/08/10 04:59:14;;;;;;;0.17;0.17;;;15.30;99.90;;;;;;5064627;28;20032;-79
2022/08/10 05:01:40;;;;;;;0.20;0.20;;;15.30;99.90;;;;;;5082940;28;20408;-80
2022/08/10 05:04:07;;;;;;;0.30;0.30;;;15.30;99.90;;;;;;5076952;28;20039;-79
2022/08/10 05:06:34;;;;;;;0.32;0.20;;;15.40;99.90;;;;;;5060005;28;20037;-79
2022/08/10 05:09:00;;;;;;;0.10;0.10;;;15.40;99.90;;;;;;5044131;28;20131;-81
2022/08/10 05:11:27;;;;;;;0.20;0.20;;;15.40;99.90;;;;;;5052973;28;20046;-79
2022/08/10 05:13:54;;;;;;;0.10;0.10;;;15.50;99.90;;;;;;5080314;28;20054;-79
2022/08/10 05:16:20;;;;;;;0.20;0.20;;;15.60;99.90;;;;;;5079909;28;20047;-79
2022/08/10 05:18:47;;;;;;;0.17;0.17;;;15.60;99.90;;;;;;5096631;28;20042;-79
2022/08/10 05:21:14;;;;;;;0.38;0.20;;;15.60;99.90;;;;;;5079994;28;20079;-79
2022/08/10 05:23:40;;;;;;;0.45;0.17;;;15.70;99.90;;;;;;5063175;28;20036;-82
2022/08/10 05:26:07;;;;;;;0.15;0.15;;;15.70;99.90;;;;;;5047311;28;20033;-79
2022/08/10 05:28:34;;;;;;;0.30;0.25;;;15.70;99.90;;;;;;5043465;28;20071;-79
2022/08/10 05:31:01;;;;;;;0.63;0.43;;;15.80;99.90;;;;;;5080581;28;20045;-79
2022/08/10 05:33:28;;;;;;;0.13;0.13;;;15.90;99.90;;;;;;5059764;28;20041;-79
2022/08/10 05:35:55;;;;;;;0.20;0.20;;;15.90;99.90;;;;;;5059641;28;20083;-79
2022/08/10 05:38:25;;;;;;;0.20;0.20;;;15.90;99.90;;;;;;5059668;28;20846;-79
2022/08/10 05:40:53;;;;;;;0.20;0.20;;;16.00;99.90;;;;;;5076071;28;20067;-79
2022/08/10 05:43:20;;;;;;;0.22;0.22;;;16.00;99.90;;;;;;5070726;28;20177;-81
2022/08/10 05:45:49;;;;;;;0.10;0.10;;;16.10;99.90;;;;;;5079730;28;20127;-82
2022/08/10 05:48:15;;;;;;;0.40;0.40;;;16.20;99.90;;;;;;5079862;28;20072;-79
2022/08/10 05:50:42;;;;;;;0.10;0.10;;;16.20;99.90;;;;;;5063018;28;20396;-79
2022/08/10 05:53:09;;;;;;;0.32;0.20;;;16.30;99.90;;;;;;5074610;28;20511;-82
2022/08/10 05:55:36;;;;;;;0.10;0.10;;;16.30;99.90;;;;;;5059041;28;20056;-79
2022/08/10 05:58:03;;;;;;;0.10;0.10;;;16.40;99.90;;;;;;5043171;28;20102;-82
2022/08/10 06:00:32;;;;;;;0.30;0.30;;;16.50;99.90;;;;;;5058785;28;20044;-79
2022/08/10 06:03:03;;;;;;;0.20;0.10;;;16.50;99.90;;;;;;5092278;28;20044;-82
2022/08/10 06:05:33;;;;;;;0.50;0.30;;;16.60;99.90;;;;;;5072187;28;20466;-79
2022/08/10 06:08:04;;;;;;;0.50;0.30;;;16.60;99.90;;;;;;5055448;28;20049;-79
2022/08/10 06:10:34;;;;;;;0.20;0.20;;;16.70;99.90;;;;;;5055918;28;20051;-82
2022/08/10 06:15:52;;;;;;;0.17;0.13;;;16.80;99.90;;;;;;5108570;28;20058;-82
2022/08/10 06:18:19;;;;;;;0.20;0.17;;;16.80;99.90;;;;;;5080695;28;20549;-82
2022/08/10 06:20:46;;;;;;;0.15;0.15;;;16.80;99.90;;;;;;5058503;28;20371;-80
2022/08/10 06:23:13;;;;;;;0.35;0.35;;;16.90;99.90;;;;;;5058755;28;20054;-79
2022/08/10 06:25:40;;;;;;;0.22;0.22;;;17.00;99.90;;;;;;5075153;28;20033;-80
2022/08/10 06:28:12;;;;;;;0.50;0.30;;;17.00;99.90;;;;;;5058649;28;20126;-79
2022/08/10 06:30:40;;;;;;;0.20;0.20;;;17.10;99.90;;;;;;5074220;28;20044;-79
2022/08/10 06:33:08;;;;;;;0.17;0.15;;;17.10;99.90;;;;;;5068355;28;20701;-82
2022/08/10 06:35:36;;;;;;;0.32;0.32;;;17.20;99.90;;;;;;5068962;28;20055;-81
2022/08/10 06:38:04;;;;;;;0.20;0.20;;;17.20;99.90;;;;;;5058350;28;20066;-85
2022/08/10 06:40:36;;;;;;;0.57;0.30;;;17.30;99.90;;;;;;5042362;28;20404;-83
2022/08/10 06:43:08;;;;;;;0.32;0.20;;;17.40;99.90;;;;;;5074636;28;20036;-84
2022/08/10 06:45:59;;;;;;;0.63;0.40;;;17.50;99.90;;;;;;5076471;28;20035;-84
2022/08/10 06:48:33;;;;;;;0.13;0.13;;;17.60;99.90;;;;;;5074962;28;20036;-82
2022/08/10 06:51:04;;;;;;;0.45;0.22;;;17.60;99.90;;;;;;5076321;28;20127;-84
2022/08/10 06:53:52;;;;;;;0.20;0.13;;;17.70;99.90;;;;;;5074622;28;20036;-82
2022/08/10 06:56:22;;;;;;;0.25;0.20;;;17.80;99.90;;;;;;5074317;28;20060;-82
2022/08/10 06:59:26;;;;;;;0.10;0.10;;;17.90;99.90;;;;;;5057822;28;20516;-83
2022/08/10 07:01:58;;;;;;;0.08;0.03;;;18.00;99.90;;;;;;5059561;28;20040;-83
2022/08/10 07:04:49;;;;;;;0.43;0.32;;;18.10;99.90;;;;;;5070938;28;20029;-83
2022/08/10 07:07:23;;;;;;;0.40;0.30;;;18.20;99.90;;;;;;5069823;28;20047;-82
2022/08/10 07:09:51;;;;;;;0.30;0.30;;;18.30;99.90;;;;;;5094891;28;20051;-83
2022/08/10 07:12:20;;;;;;;0.30;0.30;;;18.50;99.90;;;;;;5093853;28;20100;-84
2022/08/10 07:14:50;;;;;;;0.40;0.40;;;18.60;99.90;;;;;;5111484;28;20032;-84
2022/08/10 07:17:20;;;;;;;0.43;0.28;;;18.80;99.90;;;;;;5092130;28;20032;-84
2022/08/10 07:19:57;;;;;;;0.38;0.20;;;18.80;99.90;;;;;;5090845;28;20075;-84
2022/08/10 07:22:30;;;;;;;0.30;0.28;;;18.80;99.90;;;;;;5080489;28;20035;-82
2022/08/10 07:24:58;;;;;;;0.40;0.22;;;18.90;99.90;;;;;;5073654;28;20745;-82
2022/08/10 07:27:25;;;;;;;0.20;0.20;;;19.00;99.90;;;;;;5057768;28;20048;-84
2022/08/10 07:29:54;;;;;;;0.17;0.17;;;19.10;99.90;;;;;;5040791;28;20075;-83
2022/08/10 07:32:23;;;;;;;0.70;0.50;;;19.20;99.90;;;;;;5093266;28;20036;-82
2022/08/10 07:34:52;;;;;;;0.30;0.30;;;19.30;99.90;;;;;;5064088;28;20043;-83
2022/08/10 07:37:23;;;;;;;0.20;0.20;;;19.40;99.90;;;;;;5074118;28;20036;-88
2022/08/10 07:39:53;;;;;;;0.20;0.20;;;19.50;99.90;;;;;;5058050;28;20113;-83
2022/08/10 07:42:21;;;;;;;0.30;0.30;;;19.60;99.90;;;;;;5057767;28;20086;-88
2022/08/10 07:44:52;;;;;;;0.30;0.20;;;19.70;99.90;;;;;;5073917;28;20048;-86
2022/08/10 07:47:25;;;;;;;0.00;0.00;;;19.90;99.90;;;;;;5037640;28;20036;-80
2022/08/10 07:49:56;;;;;;;0.30;0.20;;;20.00;99.90;;;;;;5073621;28;20079;-80
2022/08/10 07:52:23;;;;;;;0.75;0.20;;;20.00;99.90;;;;;;5053584;28;20096;-80
2022/08/10 07:54:52;;;;;;;0.30;0.30;;;20.10;99.90;;;;;;5030712;28;20052;-81
2022/08/10 07:57:24;;;;;;;1.15;0.57;;;20.20;99.90;;;;;;5030053;28;20471;-82
2022/08/10 07:59:55;;;;;;;0.20;0.20;;;20.40;99.90;;;;;;5026103;28;20080;-81
2022/08/10 08:02:33;;;;;;;0.55;0.40;;;20.50;99.90;;;;;;5039064;28;20042;-81
2022/08/10 08:05:04;;;;;;;0.22;0.22;;;20.60;99.90;;;;;;5025220;28;20074;-81
2022/08/10 08:07:31;;;;;;;0.20;0.20;;;20.70;99.90;;;;;;5010485;28;20487;-83
2022/08/10 08:10:00;;;;;;;0.30;0.28;;;20.80;99.90;;;;;;4998580;28;20112;-81
2022/08/10 08:12:28;;;;;;;0.20;0.20;;;20.90;99.90;;;;;;5027985;28;20491;-81
2022/08/10 08:14:57;;;;;;;0.60;0.38;;;21.00;99.90;;;;;;5027868;28;20069;-83
2022/08/10 08:17:25;;;;;;;1.55;0.38;;;21.10;99.90;;;;;;5029565;28;20072;-82
2022/08/10 08:19:54;;;;;;;0.40;0.28;;;21.20;99.90;;;;;;5030054;28;20033;-82
2022/08/10 08:22:22;;;;;;;0.75;0.32;;;21.30;99.90;;;;;;5045706;28;20034;-84
2022/08/10 08:24:50;;;;;;;1.40;0.30;;;21.50;99.90;;;;;;5013930;28;20045;-84
2022/08/10 08:27:19;;;;;;;0.35;0.32;;;21.50;99.90;;;;;;5026094;28;20479;-83
2022/08/10 08:29:48;;;;;;;0.30;0.30;;;21.70;99.90;;;;;;5026553;28;20046;-82
2022/08/10 08:32:17;;;;;;;0.30;0.30;;;21.90;99.90;;;;;;5017909;28;20172;-82
2022/08/10 08:34:46;;;;;;;0.47;0.20;;;21.90;99.90;;;;;;5046332;28;20041;-82
2022/08/10 08:37:16;;;;;;;0.20;0.20;;;22.00;99.90;;;;;;5049554;28;20049;-82
2022/08/10 08:39:43;;;;;;;0.40;0.30;;;22.10;99.90;;;;;;5049713;28;20029;-82
2022/08/10 08:42:26;;;;;;;0.38;0.30;;;22.10;99.90;;;;;;5028987;28;20072;-82
2022/08/10 08:45:14;;;;;;;0.52;0.40;;;22.20;99.90;;;;;;5026868;28;20458;-84
2022/08/10 08:48:18;;;;;;;0.30;0.30;;;22.30;99.90;;;;;;5045916;28;20092;-82
2022/08/10 08:51:23;;;;;;;0.93;0.50;;;22.50;99.90;;;;;;5029498;28;20507;-82
2022/08/10 08:54:00;;;;;;;0.28;0.28;;;22.70;99.90;;;;;;5009746;28;20104;-82
2022/08/10 08:56:33;;;;;;;0.80;0.40;;;22.80;99.90;;;;;;5022843;28;20048;-82
2022/08/10 08:59:22;;;;;;;0.20;0.20;;;22.90;99.90;;;;;;5030132;28;20479;-82
2022/08/10 09:02:12;;;;;;;0.17;0.10;;;23.00;99.90;;;;;;5029372;28;20037;-82
2022/08/10 09:05:02;;;;;;;0.20;0.20;;;23.10;99.90;;;;;;5041038;28;20556;-83
2022/08/10 09:07:48;;;;;;;0.10;0.10;;;23.20;99.90;;;;;;5049164;28;20049;-81
2022/08/10 09:10:20;;;;;;;0.68;0.45;;;23.20;99.90;;;;;;5049570;28;20044;-82
2022/08/10 09:13:11;;;;;;;0.20;0.20;;;23.40;99.90;;;;;;5032059;28;20049;-88
2022/08/10 09:16:24;;;;;;;0.20;0.20;;;23.40;99.90;;;;;;5026137;28;20050;-88
2022/08/10 09:19:02;;;;;;;0.10;0.10;;;23.50;99.90;;;;;;4993503;28;20392;-84
2022/08/10 09:21:47;;;;;;;1.08;0.40;;;23.60;99.90;;;;;;5030567;28;20073;-90
2022/08/10 09:24:42;;;;;;;0.20;0.20;;;23.70;99.90;;;;;;5029546;28;20049;-88
2022/08/10 09:27:34;;;;;;;0.30;0.30;;;23.90;99.90;;;;;;5026498;28;20035;-87
2022/08/10 09:30:06;;;;;;;0.30;0.30;;;24.00;99.90;;;;;;4992440;28;20068;-86
2022/08/10 09:32:51;;;;;;;0.40;0.22;;;24.10;99.90;;;;;;5026759;28;20035;-87
2022/08/10 09:35:41;;;;;;;0.22;0.22;;;24.10;99.90;;;;;;5030166;28;20180;-85
2022/08/10 09:38:27;;;;;;;0.10;0.10;;;24.20;99.90;;;;;;5033617;28;20085;-86
2022/08/10 09:41:12;;;;;;;0.10;0.10;;;24.30;99.90;;;;;;5034418;28;20451;-87
2022/08/10 09:43:55;;;;;;;0.30;0.30;;;24.40;99.90;;;;;;5033981;28;20042;-84
2022/08/10 09:46:44;;;;;;;0.45;0.38;;;24.50;99.90;;;;;;5045478;28;20030;-87
2022/08/10 09:49:30;;;;;;;0.30;0.30;;;24.60;99.90;;;;;;5034090;28;20045;-84
2022/08/10 09:52:01;;;;;;;0.10;0.10;;;24.80;99.90;;;;;;5032781;28;20096;-89
2022/08/10 09:54:53;;;;;;;0.35;0.30;;;24.90;99.90;;;;;;5033294;28;20048;-84
2022/08/10 09:57:34;;;;;;;0.30;0.22;;;25.00;99.90;;;;;;5032933;28;20510;-84
2022/08/10 10:00:14;;;;;;;0.20;0.20;;;25.00;99.90;;;;;;5032960;28;20125;-83
2022/08/10 10:03:08;;;;;;;0.30;0.30;;;25.10;99.90;;;;;;5032982;28;20128;-83
2022/08/10 10:05:45;;;;;;;0.22;0.20;;;25.20;99.90;;;;;;5049026;28;20439;-86
2022/08/10 10:08:39;;;;;;;0.20;0.20;;;25.20;99.90;;;;;;5033365;28;20034;-84
2022/08/10 10:11:28;;;;;;;0.45;0.32;;;25.30;99.90;;;;;;5032750;28;20042;-86
2022/08/10 10:14:35;;;;;;;0.47;0.35;;;25.60;99.90;;;;;;5033054;28;20042;-86
2022/08/10 10:17:17;;;;;;;1.55;0.40;;;25.70;99.90;;;;;;5024084;28;20441;-85
2022/08/10 10:20:08;;;;;;;0.30;0.30;;;26.00;99.90;;;;;;5052475;28;20489;-85
2022/08/10 10:22:34;;;;;;;1.38;0.20;;;26.10;99.90;;;;;;5052136;28;20038;-86
2022/08/10 10:25:08;;;;;;;0.65;0.20;;;26.20;99.90;;;;;;5068568;28;20049;-85
2022/08/10 10:27:50;;;;;;;0.28;0.17;;;26.20;99.90;;;;;;5045623;28;20041;-85
2022/08/10 10:30:18;;;;;;;0.20;0.20;;;26.40;99.90;;;;;;5032204;28;20554;-85
2022/08/10 10:33:15;;;;;;;0.40;0.35;;;26.50;99.90;;;;;;5032317;28;20049;-85
2022/08/10 10:35:54;;;;;;;0.20;0.20;;;26.60;99.90;;;;;;5027608;28;20045;-84
2022/08/10 10:38:26;;;;;;;0.52;0.38;;;26.70;99.90;;;;;;5029497;28;20034;-85
2022/08/10 10:41:08;;;;;;;0.20;0.20;;;26.70;99.90;;;;;;5028536;28;20034;-84
2022/08/10 10:43:46;;;;;;;0.55;0.38;;;26.70;99.90;;;;;;5028222;28;20035;-84
2022/08/10 10:47:06;;;;;;;0.30;0.30;;;26.80;99.90;;;;;;5026946;28;20132;-85
2022/08/10 10:50:02;;;;;;;0.30;0.30;;;26.90;99.90;;;;;;5038794;28;20100;-85
2022/08/10 10:52:55;;;;;;;0.35;0.35;;;27.00;99.90;;;;;;5027085;28;20279;-85
2022/08/10 10:55:47;;;;;;;0.30;0.30;;;27.10;98.60;;;;;;4972294;28;20487;-84
2022/08/10 10:58:22;;;;;;;0.30;0.30;;;27.10;99.70;;;;;;5026863;28;20037;-84
2022/08/10 11:00:55;;;;;;;0.38;0.30;;;27.20;99.90;;;;;;5015497;28;20172;-86
2022/08/10 11:03:44;;;;;;;0.20;0.20;;;27.40;99.90;;;;;;5011777;28;20046;-85
2022/08/10 11:06:23;;;;;;;0.30;0.30;;;27.40;97.10;;;;;;4995806;28;20100;-86
2022/08/10 11:09:04;;;;;;;0.20;0.17;;;27.40;97.20;;;;;;4996402;28;20045;-86
2022/08/10 11:11:38;;;;;;;0.10;0.10;;;27.40;98.60;;;;;;5001920;28;20509;-84
2022/08/10 11:14:25;;;;;;;0.20;0.20;;;27.50;97.20;;;;;;5015372;28;20041;-85
2022/08/10 11:16:56;;;;;;;0.25;0.25;;;27.60;97.40;;;;;;5001197;28;20046;-85
2022/08/10 11:19:40;;;;;;;0.20;0.20;;;27.70;97.90;;;;;;5014417;28;20108;-85
2022/08/10 11:22:46;;;;;;;0.20;0.20;;;27.80;95.00;;;;;;5003143;28;20073;-84
2022/08/10 11:25:37;;;;;;;0.82;0.30;;;27.80;96.60;;;;;;5011399;28;20042;-85
2022/08/10 11:28:37;;;;;;;0.20;0.20;;;27.80;95.60;;;;;;5010656;28;20638;-86
2022/08/10 11:31:16;;;;;;;0.20;0.20;;;27.80;96.20;;;;;;5015044;28;20049;-85
2022/08/10 11:34:00;;;;;;;0.30;0.20;;;27.90;97.10;;;;;;5014954;28;20037;-86
2022/08/10 11:36:48;;;;;;;0.20;0.20;;;27.90;95.20;;;;;;5015128;28;20041;-86
2022/08/10 11:39:24;;;;;;;0.25;0.25;;;27.90;96.50;;;;;;5014744;28;20053;-85
2022/08/10 11:42:05;;;;;;;0.30;0.30;;;28.00;94.80;;;;;;5024720;28;20033;-84
2022/08/10 11:45:15;;;;;;;0.30;0.20;;;28.00;93.90;;;;;;5034028;28;20045;-86
2022/08/10 11:47:52;;;;;;;0.17;0.17;;;27.90;93.40;;;;;;5050255;28;20041;-85
2022/08/10 11:50:31;;;;;;;0.13;0.13;;;27.90;96.00;;;;;;5034350;28;20038;-86
2022/08/10 11:53:12;;;;;;;0.20;0.20;;;27.80;94.30;;;;;;5042330;28;20061;-83
2022/08/10 11:55:42;;;;;;;0.20;0.20;;;27.90;95.40;;;;;;5050409;28;20430;-85
2022/08/10 12:01:07;;;;;;;0.17;0.17;;;27.80;94.10;;;;;;5066788;28;20045;-85
2022/08/10 12:03:37;;;;;;;0.20;0.20;;;27.90;92.40;;;;;;5050260;28;20037;-87
2022/08/10 12:06:12;;;;;;;0.32;0.28;;;27.90;94.90;;;;;;5011336;28;20065;-88
2022/08/10 12:08:42;;;;;;;;;;;28.00;94.40;;;;;;5011566;28;20042;-87
2022/08/10 12:11:13;;;;;;;0.20;0.20;;;28.00;90.80;;;;;;5019124;28;19940;-84
2022/08/10 12:14:03;;;;;;;0.17;0.17;;;28.10;93.40;;;;;;5026524;28;20181;-86
2022/08/10 12:16:33;;;;;;;0.20;0.20;;;28.10;90.70;;;;;;5026810;28;20181;-86
2022/08/10 12:19:37;;;;;;;0.20;0.20;;;28.10;92.90;;;;;;5011224;28;20042;-86
2022/08/10 12:22:12;;;;;;;0.20;0.20;;;28.10;92.30;;;;;;5010815;28;20522;-86
2022/08/10 12:24:48;;;;;;;0.30;0.20;;;28.20;93.20;;;;;;5056554;28;20033;-86
2022/08/10 12:27:20;;;;;;;0.30;0.30;;;28.20;90.60;;;;;;5049780;28;20083;-86
2022/08/10 12:29:55;;;;;;;0.20;0.20;;;28.20;91.90;;;;;;5050199;28;20048;-86
2022/08/10 12:32:40;;;;;;;;;;;28.20;93.00;;;;;;5050499;28;20045;-87
2022/08/10 12:35:32;;;;;;;0.20;0.20;;;28.10;91.30;;;;;;5035741;28;19917;-85
2022/08/10 12:38:21;;;;;;;0.10;0.10;;;28.20;91.20;;;;;;5029971;28;20081;-84
2022/08/10 12:40:56;;;;;;;0.08;0.08;;;28.10;91.10;;;;;;5029655;28;20041;-83
2022/08/10 12:43:34;;;;;;;0.20;0.20;;;28.10;91.60;;;;;;5029741;28;20045;-84
2022/08/10 12:46:25;;;;;;;0.20;0.13;;;28.10;91.50;;;;;;5046562;28;20042;-84
2022/08/10 12:49:18;;;;;;;0.35;0.30;;;28.10;90.70;;;;;;5049389;28;20064;-85
2022/08/10 12:51:55;;;;;;;0.32;0.32;;;28.10;91.80;;;;;;5046366;28;20042;-84
2022/08/10 12:54:23;;;;;;;0.30;0.30;;;28.20;92.10;;;;;;5029162;28;20519;-84
2022/08/10 12:56:52;;;;;;;0.15;0.15;;;28.20;92.50;;;;;;5029666;28;20057;-84
2022/08/10 12:59:23;;;;;;;0.15;0.15;;;28.20;92.10;;;;;;5029554;28;20038;-83
2022/08/10 13:01:54;;;;;;;0.43;0.30;;;28.30;92.20;;;;;;5014766;28;20045;-84
2022/08/10 13:04:36;;;;;;;0.10;0.10;;;28.30;91.20;;;;;;5030014;28;20034;-83
2022/08/10 13:07:05;;;;;;;0.43;0.38;;;28.30;91.00;;;;;;5044347;28;20041;-84
2022/08/10 13:09:32;;;;;;;0.20;0.20;;;28.40;91.30;;;;;;5033883;28;20045;-85
2022/08/10 13:12:04;;;;;;;0.20;0.20;;;28.40;92.10;;;;;;5045859;28;20041;-84
2022/08/10 13:14:41;;;;;;;0.30;0.30;;;28.30;91.20;;;;;;5049909;28;20045;-83
2022/08/10 13:17:08;;;;;;;0.22;0.22;;;28.30;91.70;;;;;;5033285;28;20614;-84
2022/08/10 13:19:39;;;;;;;0.28;0.28;;;28.40;91.80;;;;;;5029615;28;20062;-84
2022/08/10 13:22:07;;;;;;;0.40;0.38;;;28.50;92.50;;;;;;5030025;28;20105;-83
2022/08/10 13:24:38;;;;;;;0.30;0.30;;;28.40;92.30;;;;;;4997449;28;20045;-83
2022/08/10 13:27:07;;;;;;;0.20;0.20;;;28.30;91.30;;;;;;5038184;28;20095;-82
2022/08/10 13:29:37;;;;;;;0.30;0.30;;;28.20;92.60;;;;;;5016824;28;20037;-83
2022/08/10 13:32:06;;;;;;;0.20;0.20;;;28.10;92.80;;;;;;5049384;28;20503;-82
2022/08/10 13:34:35;;;;;;;0.25;0.25;;;28.10;92.30;;;;;;5049093;28;20058;-82
2022/08/10 13:37:08;;;;;;;0.10;0.10;;;28.00;92.30;;;;;;5034105;28;20053;-83